Time;durP1;ratioP1;P1;durP2;ratioP2;P2;SDS_P1;SDS_P2;PMS_P1;PMS_P2;Temp;Humidity;BMP_temperature;BMP_pressure;BME280_temperature;BME280_humidity;BME280_pressure;Samples;Min_cycle;Max_cycle;Signal;HPM_P1;HPM_P2
2024/04/09 00:01:22;;;;;;;3.90;2.90;;;;;;;17.84;87.02;100144.44;5378745;26;20229;-68
2024/04/09 00:03:47;;;;;;;3.63;2.60;;;;;;;17.81;86.53;100150.56;5374610;26;20682;-67
2024/04/09 00:06:19;;;;;;;7.53;3.10;;;;;;;17.78;86.45;100144.06;5383781;26;20284;-67
2024/04/09 00:08:45;;;;;;;5.73;3.13;;;;;;;17.76;86.95;100143.69;5379263;26;20280;-67
2024/04/09 00:11:20;;;;;;;3.63;2.87;;;;;;;17.75;86.93;100138.75;5391463;26;20773;-67
2024/04/09 00:13:47;;;;;;;2.70;2.50;;;;;;;17.72;87.20;100144.81;5366807;26;20276;-67
2024/04/09 00:16:15;;;;;;;5.90;2.83;;;;;;;17.70;87.84;100141.78;5378189;26;20640;-67
2024/04/09 00:18:42;;;;;;;4.67;2.90;;;;;;;17.66;87.24;100136.47;5376483;26;20294;-67
2024/04/09 00:21:10;;;;;;;3.53;2.60;;;;;;;17.64;88.51;100136.06;5374501;26;20238;-68
2024/04/09 00:23:38;;;;;;;8.07;2.90;;;;;;;17.61;88.51;100130.72;5407420;26;20243;-68
2024/04/09 00:26:09;;;;;;;3.53;2.87;;;;;;;17.59;89.33;100127.69;5384711;26;20346;-68
2024/04/09 00:28:34;;;;;;;4.57;2.40;;;;;;;17.56;89.90;100125.78;5372074;26;20277;-68
2024/04/09 00:31:04;;;;;;;4.77;2.87;;;;;;;17.52;90.55;100128.44;5380449;26;20303;-67
2024/04/09 00:33:30;;;;;;;3.43;2.70;;;;;;;17.48;90.04;100127.69;5377998;26;20727;-67
2024/04/09 00:35:58;;;;;;;8.13;3.37;;;;;;;17.44;89.26;100118.91;5376879;26;20265;-68
2024/04/09 00:38:23;;;;;;;4.40;2.80;;;;;;;17.43;91.85;100119.31;5377644;26;20237;-67
2024/04/09 00:40:54;;;;;;;4.83;2.80;;;;;;;17.40;93.26;100122.72;5372074;26;20660;-67
2024/04/09 00:43:19;;;;;;;4.80;3.07;;;;;;;17.37;92.67;100120.78;5378346;26;20308;-68
2024/04/09 00:45:49;;;;;;;5.67;2.70;;;;;;;17.35;92.45;100115.06;5377997;26;20233;-67
2024/04/09 00:48:16;;;;;;;5.20;2.90;;;;;;;17.32;93.98;100116.59;5383955;26;20341;-68
2024/04/09 00:50:45;;;;;;;3.47;2.77;;;;;;;17.30;94.28;100118.13;5353181;26;20250;-68
2024/04/09 00:53:11;;;;;;;4.80;2.83;;;;;;;17.27;94.02;100121.53;5403804;26;20695;-68
2024/04/09 00:55:40;;;;;;;3.60;2.83;;;;;;;17.22;94.49;100117.34;5377703;26;20783;-67
2024/04/09 00:58:13;;;;;;;5.90;3.00;;;;;;;17.18;95.12;100113.91;5376300;26;20242;-67
2024/04/09 01:00:42;;;;;;;5.03;2.63;;;;;;;17.12;95.27;100114.69;5375551;26;20241;-68
2024/04/09 01:03:09;;;;;;;5.30;2.80;;;;;;;17.08;95.44;100124.59;5377340;26;20230;-67
2024/04/09 01:05:37;;;;;;;3.50;2.80;;;;;;;17.02;95.43;100120.78;5376036;26;20238;-67
2024/04/09 01:08:03;;;;;;;4.80;2.70;;;;;;;16.98;95.75;100122.66;5374368;26;20773;-68
2024/04/09 01:10:31;;;;;;;6.33;2.93;;;;;;;16.93;96.28;100121.09;5369420;26;20242;-68
2024/04/09 01:12:56;;;;;;;4.87;3.53;;;;;;;16.87;96.96;100121.88;5365889;26;20306;-68
2024/04/09 01:15:27;;;;;;;3.63;3.10;;;;;;;16.80;97.02;100119.94;5372626;26;20343;-67
2024/04/09 01:17:52;;;;;;;5.20;2.90;;;;;;;16.74;98.23;100118.03;5374758;26;20363;-67
2024/04/09 01:20:20;;;;;;;6.80;3.30;;;;;;;16.68;99.93;100124.88;5377629;26;20237;-67
2024/04/09 01:22:48;;;;;;;7.23;3.27;;;;;;;16.61;100.00;100116.84;5369083;26;20241;-67
2024/04/09 01:25:17;;;;;;;9.27;3.20;;;;;;;16.54;100.00;100120.25;5375442;26;20268;-68
2024/04/09 01:27:42;;;;;;;3.73;3.07;;;;;;;16.47;100.00;100122.91;5373923;26;20237;-68
2024/04/09 01:30:12;;;;;;;3.27;2.97;;;;;;;16.40;100.00;100127.44;5376313;26;20819;-68
2024/04/09 01:32:44;;;;;;;6.70;3.70;;;;;;;16.34;100.00;100129.66;5377751;26;20632;-67
2024/04/09 01:35:14;;;;;;;5.23;3.27;;;;;;;16.28;100.00;100131.16;5370204;26;20245;-67
2024/04/09 01:37:39;;;;;;;4.60;3.27;;;;;;;16.22;100.00;100132.66;5371330;26;20241;-67
2024/04/09 01:40:12;;;;;;;5.47;3.13;;;;;;;16.18;100.00;100133.75;5381057;26;20238;-67
2024/04/09 01:42:37;;;;;;;8.93;3.60;;;;;;;16.11;100.00;100125.75;5370536;26;20233;-68
2024/04/09 01:45:06;;;;;;;6.17;3.10;;;;;;;16.08;100.00;100134.47;5376468;26;20331;-67
2024/04/09 01:47:32;;;;;;;5.03;3.80;;;;;;;16.01;100.00;100127.22;5374048;26;20253;-68
2024/04/09 01:50:03;;;;;;;8.30;3.40;;;;;;;15.96;100.00;100124.91;5378428;26;20249;-67
2024/04/09 01:52:30;;;;;;;5.37;3.33;;;;;;;15.91;100.00;100121.81;5381130;26;20658;-67
2024/04/09 01:54:58;;;;;;;3.93;3.13;;;;;;;15.87;100.00;100123.69;5365429;26;20272;-67
2024/04/09 01:57:27;;;;;;;4.30;3.47;;;;;;;15.81;100.00;100122.50;5381104;26;20244;-67
2024/04/09 01:59:56;;;;;;;3.33;3.00;;;;;;;15.77;100.00;100122.50;5371303;26;20748;-67
2024/04/09 02:02:21;;;;;;;4.60;3.40;;;;;;;15.72;100.00;100128.16;5369378;26;20317;-67
2024/04/09 02:04:49;;;;;;;3.40;3.10;;;;;;;15.68;100.00;100119.38;5371515;26;20230;-67
2024/04/09 02:07:15;;;;;;;3.10;2.90;;;;;;;15.65;100.00;100119.38;5371992;26;20281;-67
2024/04/09 02:09:43;;;;;;;3.70;2.80;;;;;;;15.61;100.00;100115.91;5377302;26;20334;-67
2024/04/09 02:12:08;;;;;;;3.53;3.23;;;;;;;15.56;100.00;100116.25;5375601;26;20244;-68
2024/04/09 02:14:39;;;;;;;4.77;3.60;;;;;;;15.52;100.00;100112.81;5362247;26;20354;-68
2024/04/09 02:17:05;;;;;;;3.53;3.20;;;;;;;15.47;100.00;100119.22;5372947;26;20226;-67
2024/04/09 02:19:33;;;;;;;3.70;3.00;;;;;;;15.43;100.00;100112.34;5376755;26;20283;-67
2024/04/09 02:21:58;;;;;;;4.10;3.63;;;;;;;15.40;100.00;100119.19;5372129;26;20262;-67
2024/04/09 02:24:26;;;;;;;5.20;3.47;;;;;;;15.37;100.00;100119.16;5376161;26;20796;-68
2024/04/09 02:26:52;;;;;;;6.17;3.40;;;;;;;15.31;100.00;100117.94;5377872;26;20257;-67
2024/04/09 02:29:20;;;;;;;3.67;3.20;;;;;;;15.28;100.00;100118.66;5379112;26;20258;-67
2024/04/09 02:31:48;;;;;;;6.30;3.37;;;;;;;15.24;100.00;100123.19;5374497;26;20254;-68
2024/04/09 02:34:16;;;;;;;4.10;3.67;;;;;;;15.19;100.00;100121.63;5379171;26;20248;-67
2024/04/09 02:36:42;;;;;;;3.50;3.07;;;;;;;15.16;100.00;100124.25;5386661;26;20364;-68
2024/04/09 02:39:10;;;;;;;4.07;3.33;;;;;;;15.12;100.00;100126.88;5387786;26;20698;-67
2024/04/09 02:41:36;;;;;;;4.80;3.20;;;;;;;15.08;100.00;100120.00;5375439;26;20600;-67
2024/04/09 02:44:04;;;;;;;3.47;3.17;;;;;;;15.05;100.00;100123.41;5374789;26;20250;-67
2024/04/09 02:46:30;;;;;;;4.63;3.63;;;;;;;15.01;100.00;100119.94;5371566;26;20454;-67
2024/04/09 02:49:01;;;;;;;5.50;3.50;;;;;;;14.97;100.00;100117.25;5384387;26;20249;-67
2024/04/09 02:51:26;;;;;;;4.10;3.67;;;;;;;14.95;100.00;100118.75;5380363;26;20345;-67
2024/04/09 02:53:54;;;;;;;4.93;3.57;;;;;;;14.89;100.00;100110.31;5378165;26;20646;-67
2024/04/09 02:56:20;;;;;;;4.50;3.50;;;;;;;14.88;100.00;100110.69;5377374;26;20363;-67
2024/04/09 02:58:48;;;;;;;5.33;3.50;;;;;;;14.84;100.00;100108.00;5380423;26;20246;-67
2024/04/09 03:01:17;;;;;;;7.50;3.37;;;;;;;14.81;100.00;100111.38;5363554;26;20309;-67
2024/04/09 03:03:46;;;;;;;5.63;3.23;;;;;;;14.79;100.00;100107.53;5372779;26;20246;-67
2024/04/09 03:06:14;;;;;;;4.30;3.47;;;;;;;14.77;100.00;100109.81;5380921;26;20771;-68
2024/04/09 03:08:42;;;;;;;5.23;3.30;;;;;;;14.73;100.00;100106.34;5370587;26;20240;-68
2024/04/09 03:11:12;;;;;;;3.87;3.03;;;;;;;14.70;100.00;100105.19;5380449;26;20752;-68
2024/04/09 03:13:40;;;;;;;8.17;4.00;;;;;;;14.68;100.00;100098.69;5380613;26;20236;-67
2024/04/09 03:16:11;;;;;;;4.43;3.57;;;;;;;14.66;100.00;100098.31;5379960;26;20287;-67
2024/04/09 03:18:39;;;;;;;10.37;3.33;;;;;;;14.64;100.00;100103.22;5380217;26;20242;-67
2024/04/09 03:21:04;;;;;;;4.00;3.37;;;;;;;14.61;100.00;100099.41;5379572;26;20293;-67
2024/04/09 03:23:35;;;;;;;5.10;3.33;;;;;;;14.59;100.00;100098.25;5377988;26;20841;-67
2024/04/09 03:26:00;;;;;;;5.07;3.50;;;;;;;14.56;100.00;100102.38;5379825;26;20301;-67
2024/04/09 03:28:28;;;;;;;4.10;3.30;;;;;;;14.55;100.00;100106.16;5376751;26;20559;-67
2024/04/09 03:30:57;;;;;;;4.27;3.30;;;;;;;14.56;100.00;100101.59;5378525;26;20236;-68
2024/04/09 03:33:26;;;;;;;5.77;3.40;;;;;;;14.55;100.00;100094.78;5378634;26;20244;-67
2024/04/09 03:35:52;;;;;;;5.97;3.53;;;;;;;14.55;100.00;100090.22;5360210;26;20315;-67
2024/04/09 03:38:20;;;;;;;6.17;3.20;;;;;;;14.53;100.00;100095.13;5409642;26;20742;-68
2024/04/09 03:40:54;;;;;;;5.30;3.30;;;;;;;14.53;100.00;100089.81;5367058;26;20294;-67
2024/04/09 03:43:23;;;;;;;4.83;3.60;;;;;;;14.53;100.00;100097.78;5379878;26;20252;-67
2024/04/09 03:46:00;;;;;;;4.33;3.40;;;;;;;14.51;100.00;100089.41;5376241;26;20337;-67
2024/04/09 03:48:28;;;;;;;3.70;3.27;;;;;;;14.50;100.00;100093.19;5376084;26;20337;-68
2024/04/09 03:50:53;;;;;;;4.80;3.23;;;;;;;14.49;100.00;100085.59;5374434;26;20315;-67
2024/04/09 03:53:21;;;;;;;5.33;3.53;;;;;;;14.48;100.00;100086.69;5362161;26;20240;-67
2024/04/09 03:55:55;;;;;;;7.53;3.50;;;;;;;14.45;100.00;100084.78;5380031;26;20240;-67
2024/04/09 03:58:23;;;;;;;7.90;3.83;;;;;;;14.42;100.00;100086.28;5384570;26;20621;-68
2024/04/09 04:00:54;;;;;;;6.50;3.80;;;;;;;14.41;100.00;100081.31;5384933;26;20735;-67
2024/04/09 04:03:22;;;;;;;4.70;3.60;;;;;;;14.40;100.00;100077.13;5379464;26;20320;-67
2024/04/09 04:05:50;;;;;;;7.63;3.80;;;;;;;14.38;100.00;100077.50;5366438;26;20574;-67
2024/04/09 04:08:18;;;;;;;6.93;3.63;;;;;;;14.37;100.00;100075.19;5369584;26;20294;-67
2024/04/09 04:10:54;;;;;;;3.90;3.50;;;;;;;14.34;100.00;100066.06;5370001;26;20230;-67
2024/04/09 04:13:23;;;;;;;12.43;4.20;;;;;;;14.32;100.00;100070.97;5366881;26;20352;-67
2024/04/09 04:15:59;;;;;;;7.37;3.83;;;;;;;14.28;100.00;100067.50;5379197;26;20778;-67
2024/04/09 04:18:24;;;;;;;4.70;3.43;;;;;;;14.27;100.00;100067.88;5375726;26;20584;-67
2024/04/09 04:20:56;;;;;;;5.53;4.07;;;;;;;14.25;100.00;100075.44;5377865;26;20247;-67
2024/04/09 04:23:22;;;;;;;6.43;4.07;;;;;;;14.21;100.00;100075.41;5372086;26;20478;-67
2024/04/09 04:25:57;;;;;;;4.23;3.83;;;;;;;14.19;100.00;100068.91;5379855;26;20292;-67
2024/04/09 04:28:25;;;;;;;5.20;3.97;;;;;;;14.15;100.00;100062.75;5379147;26;20853;-67
2024/04/09 04:30:53;;;;;;;5.47;3.80;;;;;;;14.12;100.00;100063.50;5379568;26;20238;-67
2024/04/09 04:33:18;;;;;;;5.13;3.80;;;;;;;14.09;100.00;100070.31;5378880;26;20583;-67
2024/04/09 04:35:46;;;;;;;9.73;4.10;;;;;;;14.07;100.00;100064.56;5376396;26;20336;-67
2024/04/09 04:38:12;;;;;;;8.40;4.20;;;;;;;14.06;100.00;100063.03;5379459;26;20291;-67
2024/04/09 04:40:42;;;;;;;7.53;4.37;;;;;;;14.03;100.00;100063.75;5379659;26;20585;-67
2024/04/09 04:43:08;;;;;;;5.90;3.77;;;;;;;14.03;100.00;100060.34;5367429;26;20347;-67
2024/04/09 04:45:38;;;;;;;10.37;4.57;;;;;;;14.01;100.00;100063.34;5377237;26;20750;-67
2024/04/09 04:48:04;;;;;;;7.40;4.20;;;;;;;14.00;100.00;100059.19;5379404;26;20293;-69
2024/04/09 04:50:32;;;;;;;9.00;4.20;;;;;;;13.99;100.00;100060.31;5372248;26;20241;-69
2024/04/09 04:52:58;;;;;;;6.63;4.10;;;;;;;14.00;100.00;100069.78;5378422;26;20234;-69
2024/04/09 04:55:26;;;;;;;9.57;4.63;;;;;;;14.00;100.00;100066.38;5376575;26;20278;-69
2024/04/09 04:57:52;;;;;;;8.63;3.97;;;;;;;14.00;100.00;100064.50;5368791;26;20310;-69
2024/04/09 05:00:20;;;;;;;10.77;5.23;;;;;;;14.01;100.00;100052.75;5375934;26;20245;-70
2024/04/09 05:02:48;;;;;;;6.17;3.90;;;;;;;14.02;100.00;100050.88;5367119;26;20245;-69
2024/04/09 05:05:16;;;;;;;5.80;4.17;;;;;;;14.05;100.00;100058.88;5371791;26;20627;-69
2024/04/09 05:07:42;;;;;;;9.43;4.70;;;;;;;14.07;100.00;100053.94;5375940;26;20258;-69
2024/04/09 05:10:15;;;;;;;10.17;3.90;;;;;;;14.10;100.00;100047.16;5377342;26;20264;-70
2024/04/09 05:12:42;;;;;;;12.37;4.70;;;;;;;14.12;100.00;100050.97;5375539;26;20284;-69
2024/04/09 05:15:11;;;;;;;6.47;4.70;;;;;;;14.17;100.00;100048.00;5378722;26;20262;-70
2024/04/09 05:17:36;;;;;;;6.10;4.50;;;;;;;14.20;100.00;100049.97;5370581;26;20730;-70
2024/04/09 05:20:09;;;;;;;6.13;4.83;;;;;;;14.24;100.00;100048.09;5393004;26;20261;-69
2024/04/09 05:22:35;;;;;;;6.00;4.77;;;;;;;14.30;100.00;100044.03;5367527;26;20285;-69
2024/04/09 05:25:03;;;;;;;4.90;4.40;;;;;;;14.35;100.00;100038.41;5324474;21;20261;-72
2024/04/09 05:27:29;;;;;;;6.03;5.00;;;;;;;14.42;100.00;100043.78;5263078;27;20325;-71
2024/04/09 05:29:57;;;;;;;8.53;3.77;;;;;;;14.49;100.00;100035.88;5250778;27;20784;-72
2024/04/09 05:32:24;;;;;;;7.70;4.10;;;;;;;14.56;100.00;100035.19;5256236;27;20297;-72
2024/04/09 05:34:52;;;;;;;9.53;4.17;;;;;;;14.65;100.00;100038.31;5292305;27;20603;-72
2024/04/09 05:37:20;;;;;;;11.07;4.00;;;;;;;14.76;100.00;100031.22;5261071;27;20309;-72
2024/04/09 05:39:49;;;;;;;7.37;4.70;;;;;;;14.86;100.00;100033.19;5255138;27;20241;-72
2024/04/09 05:42:14;;;;;;;9.30;4.30;;;;;;;14.96;100.00;100033.28;5252619;27;20254;-72
2024/04/09 05:44:43;;;;;;;8.67;3.80;;;;;;;15.07;100.00;100036.78;5257709;27;20295;-72
2024/04/09 05:47:08;;;;;;;7.07;3.83;;;;;;;15.19;100.00;100039.19;5254351;27;20240;-71
2024/04/09 05:49:37;;;;;;;10.03;4.17;;;;;;;15.32;100.00;100031.69;5256412;27;20797;-72
2024/04/09 05:52:02;;;;;;;11.83;5.10;;;;;;;15.43;100.00;100038.59;5261813;27;20853;-72
2024/04/09 05:54:33;;;;;;;10.53;4.20;;;;;;;15.56;100.00;100041.72;5255792;27;20260;-72
2024/04/09 05:56:59;;;;;;;11.00;4.10;;;;;;;15.68;100.00;100049.44;5254388;27;20312;-71
2024/04/09 05:59:27;;;;;;;10.50;3.63;;;;;;;15.78;100.00;100046.81;5257152;27;20241;-72
2024/04/09 06:01:56;;;;;;;9.00;3.30;;;;;;;15.90;100.00;100054.50;5253618;27;20260;-72
2024/04/09 06:04:24;;;;;;;7.13;3.40;;;;;;;15.99;100.00;100056.81;5256997;27;20312;-72
2024/04/09 06:06:53;;;;;;;21.57;4.53;;;;;;;16.09;100.00;100058.78;5259360;27;20303;-72
2024/04/09 06:09:19;;;;;;;9.03;3.50;;;;;;;16.17;100.00;100061.09;5253723;27;20260;-72
2024/04/09 06:11:50;;;;;;;7.67;3.23;;;;;;;16.25;100.00;100061.88;5248075;27;20238;-72
2024/04/09 06:14:16;;;;;;;6.70;3.80;;;;;;;16.33;100.00;100068.75;5255162;27;20233;-72
2024/04/09 06:16:44;;;;;;;12.70;3.57;;;;;;;16.41;100.00;100065.75;5267060;27;20246;-72
2024/04/09 06:19:09;;;;;;;17.40;3.50;;;;;;;16.48;100.00;100065.78;5262751;27;20269;-72
2024/04/09 06:21:38;;;;;;;9.30;3.60;;;;;;;16.56;100.00;100070.00;5258317;27;20984;-72
2024/04/09 06:24:03;;;;;;;16.93;4.50;;;;;;;16.64;100.00;100065.44;5260747;27;20300;-72
2024/04/09 06:26:32;;;;;;;7.03;3.37;;;;;;;16.71;100.00;100070.81;5264438;27;20236;-72
2024/04/09 06:29:00;;;;;;;11.83;3.50;;;;;;;16.80;100.00;100060.50;5257855;27;20245;-72
2024/04/09 06:31:28;;;;;;;11.97;4.00;;;;;;;16.89;100.00;100063.59;5258585;27;20723;-72
2024/04/09 06:33:54;;;;;;;4.37;3.37;;;;;;;16.98;100.00;100063.97;5265483;27;20691;-72
2024/04/09 06:36:22;;;;;;;11.50;3.63;;;;;;;17.05;100.00;100062.09;5258421;27;20260;-71
2024/04/09 06:38:48;;;;;;;7.20;3.70;;;;;;;17.14;100.00;100056.38;5249666;27;20264;-72
2024/04/09 06:41:16;;;;;;;6.63;3.17;;;;;;;17.24;100.00;100061.69;5256862;27;20742;-71
2024/04/09 06:43:41;;;;;;;9.03;3.73;;;;;;;17.33;100.00;100053.31;5262214;27;20260;-71
2024/04/09 06:46:12;;;;;;;21.73;3.47;;;;;;;17.42;100.00;100049.13;5257129;27;20337;-72
2024/04/09 06:48:38;;;;;;;6.20;3.03;;;;;;;17.52;100.00;100047.59;5266485;27;20372;-73
2024/04/09 06:51:06;;;;;;;8.10;3.03;;;;;;;17.61;100.00;100042.63;5257347;27;20662;-73
2024/04/09 06:53:31;;;;;;;6.93;2.80;;;;;;;17.69;100.00;100041.47;5253688;27;20297;-71
2024/04/09 06:55:59;;;;;;;8.63;2.70;;;;;;;17.77;100.00;100035.72;5259946;27;20306;-72
2024/04/09 06:58:25;;;;;;;6.53;3.37;;;;;;;17.86;100.00;100036.06;5266000;27;20257;-72
2024/04/09 07:00:53;;;;;;;6.70;3.13;;;;;;;17.95;100.00;100033.00;5256823;27;20284;-72
2024/04/09 07:03:21;;;;;;;9.97;2.93;;;;;;;18.05;100.00;100042.88;5255820;27;20260;-72
2024/04/09 07:05:49;;;;;;;4.97;2.63;;;;;;;18.14;100.00;100041.31;5254882;27;20680;-71
2024/04/09 07:08:14;;;;;;;6.47;2.80;;;;;;;18.25;100.00;100027.88;5262824;27;20304;-72
2024/04/09 07:10:42;;;;;;;7.27;2.60;;;;;;;18.34;100.00;100033.59;5256138;27;20286;-72
2024/04/09 07:13:08;;;;;;;4.20;2.60;;;;;;;18.47;100.00;100038.09;5261916;27;20296;-71
2024/04/09 07:15:36;;;;;;;4.60;2.40;;;;;;;18.58;100.00;100041.47;5250510;27;20250;-72
2024/04/09 07:18:03;;;;;;;3.77;2.70;;;;;;;18.69;100.00;100034.16;5259713;27;20277;-72
2024/04/09 07:20:33;;;;;;;9.43;2.90;;;;;;;18.82;100.00;100047.81;5255682;27;20280;-71
2024/04/09 07:22:59;;;;;;;10.43;2.90;;;;;;;18.95;100.00;100048.88;5265474;27;20257;-72
2024/04/09 07:25:27;;;;;;;3.27;2.27;;;;;;;19.05;100.00;100040.75;5255184;27;20395;-72
2024/04/09 07:27:53;;;;;;;5.90;2.77;;;;;;;19.19;100.00;100043.34;5253112;27;20258;-72
2024/04/09 07:30:21;;;;;;;2.93;2.20;;;;;;;19.30;100.00;100043.28;5259030;27;20249;-72
2024/04/09 07:32:46;;;;;;;5.20;2.17;;;;;;;19.43;100.00;100042.38;5247936;27;20630;-71
2024/04/09 07:35:14;;;;;;;4.33;2.27;;;;;;;19.54;100.00;100040.38;5251387;27;20275;-72
2024/04/09 07:37:43;;;;;;;3.53;2.20;;;;;;;19.66;100.00;100041.78;5253993;27;20288;-72
2024/04/09 07:40:11;;;;;;;6.33;2.50;;;;;;;19.80;100.00;100036.25;5256719;27;20233;-71
2024/04/09 07:42:36;;;;;;;3.00;2.40;;;;;;;19.92;100.00;100041.84;5255383;27;20382;-72
2024/04/09 07:45:05;;;;;;;3.27;2.20;;;;;;;20.04;100.00;100032.53;5260724;27;20743;-72
2024/04/09 07:47:30;;;;;;;4.20;2.40;;;;;;;20.16;100.00;100032.78;5251575;27;20342;-72
2024/04/09 07:49:58;;;;;;;5.60;2.13;;;;;;;20.28;100.00;100034.19;5260997;27;20248;-72
2024/04/09 07:52:24;;;;;;;5.20;2.27;;;;;;;20.42;100.00;100034.75;5258170;27;20362;-72
2024/04/09 07:54:54;;;;;;;3.00;2.03;;;;;;;20.53;99.86;100031.91;5244832;27;20659;-72
2024/04/09 07:57:20;;;;;;;5.33;2.37;;;;;;;20.64;98.12;100027.16;5249320;27;20339;-71
2024/04/09 07:59:48;;;;;;;5.83;2.13;;;;;;;20.74;96.43;100020.88;5258851;27;20241;-72
2024/04/09 08:02:13;;;;;;;3.73;1.93;;;;;;;20.86;94.44;100028.38;5254966;27;20594;-72
2024/04/09 08:04:41;;;;;;;4.87;2.40;;;;;;;20.97;91.19;100027.06;5255190;27;20280;-72
2024/04/09 08:07:07;;;;;;;6.67;2.50;;;;;;;21.08;89.34;100024.19;5256111;27;20319;-72
2024/04/09 08:09:35;;;;;;;7.33;2.27;;;;;;;21.18;86.48;100020.56;5256219;27;20741;-72
2024/04/09 08:12:04;;;;;;;5.03;2.60;;;;;;;21.27;86.25;100018.13;5250266;27;20317;-72
2024/04/09 08:14:32;;;;;;;6.85;2.97;;;;;;;21.36;87.51;100018.34;5249511;27;20241;-72
2024/04/09 08:16:57;;;;;;;8.98;2.75;;;;;;;21.45;86.34;100019.31;5252793;27;20301;-72
2024/04/09 08:19:27;;;;;;;3.63;2.00;;;;;;;21.56;86.90;100014.50;5251084;27;20355;-72
2024/04/09 08:21:54;;;;;;;2.10;1.80;;;;;;;21.66;85.15;100021.63;5250799;27;20246;-72
2024/04/09 08:24:22;;;;;;;2.75;2.30;;;;;;;21.75;82.62;100016.50;5256136;27;20802;-72
2024/04/09 08:26:47;;;;;;;3.47;2.50;;;;;;;21.86;83.65;100021.66;5248784;27;20241;-71
2024/04/09 08:29:19;;;;;;;7.00;2.03;;;;;;;21.95;83.39;100025.31;5260826;27;20675;-73
2024/04/09 08:31:44;;;;;;;4.25;1.80;;;;;;;22.04;78.27;100016.69;5253072;27;20296;-72
2024/04/09 08:34:12;;;;;;;3.47;2.10;;;;;;;22.11;85.27;100017.31;5256228;27;20630;-73
2024/04/09 08:36:38;;;;;;;4.88;2.08;;;;;;;22.19;80.91;100018.66;5259453;27;20256;-74
2024/04/09 08:39:07;;;;;;;6.60;2.15;;;;;;;22.28;78.03;100016.16;5256108;27;20241;-74
2024/04/09 08:41:34;;;;;;;4.97;2.30;;;;;;;22.35;79.23;100017.94;5262055;27;20237;-74
2024/04/09 08:44:03;;;;;;;3.88;2.03;;;;;;;22.45;76.68;100012.34;5248441;27;20261;-71
2024/04/09 08:46:33;;;;;;;3.03;2.10;;;;;;;22.53;75.35;100007.56;5254147;27;20241;-74
2024/04/09 08:49:03;;;;;;;3.33;2.08;;;;;;;22.61;76.87;100009.66;5257562;27;20279;-74
2024/04/09 08:51:28;;;;;;;8.20;2.28;;;;;;;22.69;76.23;100011.03;5251849;27;20737;-73
2024/04/09 08:53:57;;;;;;;3.38;2.00;;;;;;;22.78;77.73;100003.13;5258760;27;20333;-73
2024/04/09 08:56:22;;;;;;;3.47;2.15;;;;;;;22.86;79.28;100001.03;5255537;27;20245;-74
2024/04/09 08:58:50;;;;;;;2.88;2.20;;;;;;;22.94;75.64;99994.28;5255879;27;20254;-74
2024/04/09 09:01:28;;;;;;;6.22;2.28;;;;;;;23.02;73.39;99999.06;5249519;27;20256;-74
2024/04/09 09:04:01;;;;;;;4.70;2.15;;;;;;;23.10;72.35;99986.19;5249053;27;20241;-74
2024/04/09 09:06:26;;;;;;;3.13;2.00;;;;;;;23.17;72.52;99977.94;5257985;27;20767;-72
2024/04/09 09:08:55;;;;;;;3.38;2.13;;;;;;;23.23;73.04;99980.88;5259520;27;20535;-74
2024/04/09 09:11:21;;;;;;;3.97;2.03;;;;;;;23.29;72.73;99978.00;5258241;27;20252;-73
2024/04/09 09:13:49;;;;;;;5.50;2.20;;;;;;;23.38;72.04;99979.34;5248701;27;20317;-73
2024/04/09 09:16:15;;;;;;;3.22;2.13;;;;;;;23.46;69.45;99976.03;5262378;27;20365;-73
2024/04/09 09:18:43;;;;;;;2.58;1.73;;;;;;;23.53;70.69;99975.81;5249715;27;20253;-73
2024/04/09 09:21:13;;;;;;;4.80;2.10;;;;;;;23.63;67.17;99979.41;5247841;27;20360;-74
2024/04/09 09:23:41;;;;;;;2.60;1.95;;;;;;;23.72;65.92;99983.00;5252174;27;20244;-74
2024/04/09 09:26:07;;;;;;;4.00;2.05;;;;;;;23.80;66.32;99990.44;5251308;27;20253;-74
2024/04/09 09:28:35;;;;;;;6.13;2.42;;;;;;;23.87;64.68;99989.50;5256230;27;20355;-73
2024/04/09 09:31:00;;;;;;;9.23;2.40;;;;;;;23.95;62.88;99982.75;5258864;27;20288;-73
2024/04/09 09:33:30;;;;;;;3.97;2.42;;;;;;;24.04;63.84;99992.91;5256446;27;20845;-74
2024/04/09 09:35:56;;;;;;;3.97;2.25;;;;;;;24.10;62.16;99975.00;5253667;27;20284;-74
2024/04/09 09:38:28;;;;;;;2.60;1.95;;;;;;;24.16;61.61;99979.44;5258547;27;20236;-74
2024/04/09 09:40:54;;;;;;;11.13;2.50;;;;;;;24.27;61.77;99979.88;5247485;27;20765;-73
2024/04/09 09:43:24;;;;;;;6.70;2.33;;;;;;;24.34;62.53;99970.81;5251521;27;20244;-74
2024/04/09 09:45:50;;;;;;;7.13;2.50;;;;;;;24.43;64.34;99969.72;5251200;27;20249;-72
2024/04/09 09:48:20;;;;;;;8.05;2.47;;;;;;;24.53;61.32;99971.31;5256992;27;20238;-74
2024/04/09 09:50:46;;;;;;;8.73;2.20;;;;;;;24.63;63.28;99971.44;5257720;27;20229;-74
2024/04/09 09:53:14;;;;;;;3.22;2.10;;;;;;;24.72;62.86;99971.56;5257287;27;20245;-74
2024/04/09 09:55:44;;;;;;;2.65;2.00;;;;;;;24.82;60.92;99967.75;5257643;27;20261;-74
2024/04/09 09:58:15;;;;;;;4.22;2.00;;;;;;;24.93;62.32;99968.16;5251443;27;20241;-74
2024/04/09 10:00:42;;;;;;;8.90;2.30;;;;;;;25.02;59.53;99971.69;5256853;27;20358;-74
2024/04/09 10:03:10;;;;;;;4.10;1.95;;;;;;;25.10;60.50;99972.97;5255628;27;20540;-72
2024/04/09 10:05:38;;;;;;;5.13;2.20;;;;;;;25.19;60.14;99961.47;5248735;27;20242;-74
2024/04/09 10:08:16;;;;;;;4.57;2.00;;;;;;;25.29;58.00;99961.16;5254354;27;20241;-74
2024/04/09 10:10:47;;;;;;;3.47;2.20;;;;;;;25.42;59.84;99955.66;5250373;27;20241;-73
2024/04/09 10:13:15;;;;;;;2.88;2.00;;;;;;;25.50;57.67;99967.75;5257643;27;20655;-74
2024/04/09 10:15:43;;;;;;;3.90;2.50;;;;;;;25.58;58.34;99972.47;5251595;27;20249;-74
2024/04/09 10:18:12;;;;;;;5.72;2.50;;;;;;;25.68;58.57;99968.63;5250968;27;20230;-74
2024/04/09 10:20:37;;;;;;;4.78;2.20;;;;;;;25.77;57.73;99963.28;5250686;27;20274;-74
2024/04/09 10:23:07;;;;;;;4.28;2.08;;;;;;;25.86;52.15;99971.44;5254880;27;20245;-73
2024/04/09 10:25:36;;;;;;;5.47;2.35;;;;;;;25.92;52.70;99964.28;5253546;27;20346;-74
2024/04/09 10:28:09;;;;;;;5.55;2.25;;;;;;;25.99;53.98;99971.38;5248798;27;20426;-71
2024/04/09 10:30:39;;;;;;;4.72;2.15;;;;;;;26.04;54.86;99974.25;5245812;27;20308;-74
2024/04/09 10:33:08;;;;;;;3.10;2.08;;;;;;;26.11;51.49;99975.94;5257968;27;20284;-74
2024/04/09 10:35:34;;;;;;;5.95;2.17;;;;;;;26.15;53.70;99965.75;5253391;27;20257;-74
2024/04/09 10:38:05;;;;;;;3.72;2.08;;;;;;;26.23;52.27;99969.69;5255358;27;20721;-73
2024/04/09 10:40:34;;;;;;;5.28;2.20;;;;;;;26.30;50.74;99964.75;5253507;27;20241;-73
2024/04/09 10:43:06;;;;;;;3.55;2.38;;;;;;;26.35;49.84;99972.28;5258466;27;20362;-72
2024/04/09 10:45:35;;;;;;;4.45;2.17;;;;;;;26.41;49.30;99967.06;5259924;27;20245;-73
2024/04/09 10:48:03;;;;;;;7.15;2.30;;;;;;;26.46;48.67;99974.59;5250590;27;20753;-74
2024/04/09 10:50:30;;;;;;;5.30;1.85;;;;;;;26.50;50.19;99964.34;5249802;27;20358;-74
2024/04/09 10:52:58;;;;;;;5.30;2.20;;;;;;;26.56;50.56;99965.28;5251380;27;20249;-74
2024/04/09 10:55:24;;;;;;;3.33;1.98;;;;;;;26.60;46.70;99966.69;5251038;27;20242;-74
2024/04/09 10:57:53;;;;;;;4.85;2.15;;;;;;;26.63;49.53;99963.06;5253658;27;20758;-74
2024/04/09 11:00:19;;;;;;;2.45;1.77;;;;;;;26.66;49.03;99953.28;5257480;27;20327;-74
2024/04/09 11:02:49;;;;;;;3.53;1.90;;;;;;;26.71;48.61;99955.41;5248428;27;20775;-73
2024/04/09 11:05:16;;;;;;;8.70;2.15;;;;;;;26.75;49.69;99953.31;5247094;27;20244;-74
2024/04/09 11:07:46;;;;;;;4.65;1.85;;;;;;;26.79;49.11;99951.97;5251038;27;20336;-73
2024/04/09 11:10:14;;;;;;;4.53;1.95;;;;;;;26.82;45.44;99955.72;5249035;27;20257;-74
2024/04/09 11:12:48;;;;;;;2.72;2.00;;;;;;;26.87;47.75;99953.16;5253870;27;20225;-72
2024/04/09 11:15:14;;;;;;;6.57;2.20;;;;;;;26.92;45.11;99958.00;5253035;27;20415;-74
2024/04/09 11:17:43;;;;;;;5.30;2.30;;;;;;;26.93;46.20;99951.38;5249095;27;20283;-73
2024/04/09 11:20:14;;;;;;;6.10;1.98;;;;;;;26.96;46.56;99949.72;5249435;27;20343;-74
2024/04/09 11:22:45;;;;;;;3.90;2.10;;;;;;;27.00;44.05;99955.75;5252762;27;20256;-74
2024/04/09 11:25:12;;;;;;;3.17;1.90;;;;;;;27.04;45.73;99951.66;5254059;27;20248;-74